Home > Products > Valid Products > MTR

000
SAUS41 KLWX 230600 COR
MTRDMH
METAR KDMH 230554Z AUTO 24/19 A3005 RMK AO1 SLP176 T02390189 10283
20239 56013





000
SAUS41 KLWX 230600
MTRRYT
METAR KRYT 230553Z AUTO 00000KT 10SM CLR 22/20 A3005 RMK AO2 SLP164
T02170200 10267 20211 56014 $





000
SAUS41 KLWX 230556
MTRNAK
METAR KNAK 230554Z AUTO 18005KT 10SM CLR 24/20 A3005 RMK AO2 SLP176
T02440200 10267 20239 57015





000
SAUS41 KLWX 230508 COR
MTRRSP
METAR KRSP 230454Z AUTO VRB03KT 9SM FEW007 21/19 A3012 RMK AO2
SLP285 T02110194 402670194 $





000
SAUS41 KLWX 230500
MTRRYT
METAR KRYT 230453Z AUTO 00000KT 8SM CLR 22/20 A3006 RMK AO2 SLP167
T02170200 402890183 $





000
SAUS41 KLWX 230459 COR
MTRDMH
METAR KDMH 230454Z AUTO 24/18 A3006 RMK AO1 SLP179 T02440183
403060228





000
SAUS41 KLWX 230455
MTRNAK
METAR KNAK 230454Z AUTO 18006KT 10SM CLR 24/21 A3006 RMK AO2 SLP181
T02440206 402830222





000
SAUS41 KLWX 230442 COR
MTRRSP
SPECI KRSP 230428Z AUTO VRB05KT 9SM FEW007 21/19 A3013 RMK AO2 $





000
SAUS41 KLWX 230408 COR
MTRRSP
METAR KRSP 230354Z AUTO VRB05KT 10SM CLR 22/19 A3013 RMK AO2 SLP289
T02170194 $





000
SAUS41 KLWX 230400
MTRRYT
METAR KRYT 230353Z AUTO 00000KT 8SM SCT041 BKN050 22/20 A3007 RMK
AO2 SLP170 T02170200 $





000
SAUS41 KLWX 230359 COR
MTRDMH
METAR KDMH 230354Z AUTO 25/18 A3008 RMK AO1 SLP185 T02500178





000
SAUS41 KLWX 230355
MTRNAK
METAR KNAK 230354Z AUTO 18005KT 10SM CLR 24/19 A3007 RMK AO2 SLP185
T02440194





000
SAUS41 KLWX 230355
MTRNAK
METAR KNAK 230354Z AUTO 18005KT 10SM CLR 24/19 A3007 RMK AO2 SLP185
T02440194





000
SAUS41 KLWX 230308 COR
MTRRSP
METAR KRSP 230254Z AUTO 20006KT 10SM FEW044 22/19 A3015 RMK AO2
SLP201 T02170194 50001 $





000
SAUS41 KLWX 230300
MTRRYT
METAR KRYT 230253Z AUTO 00000KT 10SM BKN041 23/21 A3009 RMK AO2
SLP178 T02280206 50003 $





000
SAUS41 KLWX 230300 COR
MTRDMH
METAR KDMH 230254Z AUTO 26/18 A3009 RMK AO1 SLP189 T02610178 53002





000
SAUS41 KLWX 230255
MTRNAK
METAR KNAK 230254Z AUTO 19004KT 10SM CLR 25/19 A3009 RMK AO2 SLP190
T02500194 50001





000
SAUS41 KLWX 230208 COR
MTRRSP
METAR KRSP 230154Z AUTO 20006KT 10SM CLR 22/19 A3015 RMK AO2 SLP205
T02220194 $





000
SAUS41 KLWX 230200
MTRRYT
METAR KRYT 230153Z AUTO 00000KT 10SM CLR 23/20 A3010 RMK AO2 SLP180
T02280200 $





000
SAUS41 KLWX 230159 COR
MTRDMH
METAR KDMH 230154Z AUTO 27/17 A3009 RMK AO1 SLP189 T02670172





000
SAUS41 KLWX 230155
MTRNAK
METAR KNAK 230154Z AUTO 18005KT 10SM CLR 26/19 A3009 RMK AO2 SLP192
T02560189





000
SAUS41 KLWX 230108 COR
MTRRSP
METAR KRSP 230054Z AUTO 20005KT 10SM CLR 23/19 A3015 RMK AO2 SLP201
T02280194 $





000
SAUS41 KLWX 230100
MTRRYT
METAR KRYT 230053Z AUTO 00000KT 10SM CLR 24/21 A3009 RMK AO2 SLP177
T02390206 $





000
SAUS41 KLWX 230059 COR
MTRDMH
METAR KDMH 230054Z AUTO 27/18 A3008 RMK AO1 SLP186 T02720183





000
SAUS41 KLWX 230056
MTRNAK
METAR KNAK 230054Z AUTO 17008KT 10SM CLR 26/18 A3008 RMK AO2 SLP189
T02610183





000
SAUS41 KLWX 230008 COR
MTRRSP
METAR KRSP 222354Z AUTO 20006KT 10SM CLR 24/19 A3014 RMK AO2 SLP200
T02390194 10267 20239 58004 $





000
SAUS41 KLWX 230000
MTRRYT
METAR KRYT 222353Z AUTO 22003KT 10SM CLR 27/20 A3008 RMK AO2 SLP175
T02670200 10289 20256 56003 $





000
SAUS41 KLWX 222359 COR
MTRDMH
METAR KDMH 222354Z AUTO 28/18 A3008 RMK AO1 SLP187 T02830183 10306
20283 56006





000
SAUS41 KLWX 222355
MTRNAK
METAR KNAK 222354Z AUTO 17010KT 10SM CLR 27/18 A3009 RMK AO2 SLP190
T02670183 10283 20267 56009





000
SAUS41 KLWX 222308 COR
MTRRSP
METAR KRSP 222254Z AUTO VRB06KT 10SM CLR 25/19 A3015 RMK AO2 SLP297
T02500194 $





000
SAUS41 KLWX 222300
MTRRYT
METAR KRYT 222253Z AUTO 24004KT 10SM FEW035 28/19 A3008 RMK AO2
SLP174 T02780194 $





000
SAUS41 KLWX 222259 COR
MTRDMH
METAR KDMH 222254Z AUTO 29/19 A3009 RMK AO1 SLP188 T02890189





000
SAUS41 KLWX 222255
MTRNAK
METAR KNAK 222254Z AUTO 19006KT 10SM CLR 28/18 A3009 RMK AO2 SLP190
T02780178





000
SAUS41 KLWX 222208 COR
MTRRSP
METAR KRSP 222154Z AUTO 21007KT 10SM CLR 26/19 A3015 RMK AO2 SLP203
T02560189 $





000
SAUS41 KLWX 222200
MTRRYT
METAR KRYT 222153Z AUTO VRB05KT 10SM SCT031 28/20 A3009 RMK AO2
SLP175 T02830200 $





000
SAUS41 KLWX 222159 COR
MTRDMH
METAR KDMH 222154Z AUTO 29/19 A3009 RMK AO1 SLP189 T02940189





000
SAUS41 KLWX 222156
MTRNAK
METAR KNAK 222154Z AUTO 17011KT 10SM CLR 28/18 A3010 RMK AO2 SLP193
T02830178





000
SAUS41 KLWX 222108 COR
MTRRSP
METAR KRSP 222054Z AUTO VRB05KT 10SM FEW026 27/19 A3016 RMK AO2
SLP203 T02670194 58015 $





000
SAUS41 KLWX 222100
MTRRYT
METAR KRYT 222053Z AUTO VRB06KT 10SM FEW033 28/21 A3009 RMK AO2
SLP178 T02830206 58019 $





000
SAUS41 KLWX 222059 COR
MTRDMH
METAR KDMH 222054Z AUTO 29/19 A3010 RMK AO1 SLP193 T02940189 58014





000
SAUS41 KLWX 222055
MTRNAK
METAR KNAK 222054Z AUTO 16011KT 10SM CLR 28/18 A3011 RMK AO2 SLP198
T02830183 56015





000
SAUS41 KLWX 222008 COR
MTRRSP
METAR KRSP 221954Z AUTO VRB06KT 10SM SCT040 BKN047 25/19 A3018 RMK
AO2 SLP211 T02500194 $





000
SAUS41 KLWX 222000
MTRRYT
METAR KRYT 221953Z AUTO 24007KT 190V280 10SM SCT033 28/20 A3012 RMK
AO2 SLP185 T02830200 $





000
SAUS41 KLWX 221959 COR
MTRDMH
METAR KDMH 221954Z AUTO 29/19 A3012 RMK AO1 SLP197 T02940189





000
SAUS41 KLWX 221956
MTRNAK
METAR KNAK 221954Z AUTO 16007KT 10SM SCT065 28/19 A3013 RMK AO2
SLP203 T02830194





000
SAUS41 KLWX 221923
MTRRYT
SPECI KRYT 221916Z AUTO VRB03KT 10SM BKN031 28/21 A3013 RMK AO2 $





000
SAUS41 KLWX 221908 COR
MTRRSP
METAR KRSP 221854Z AUTO VRB03KT 10SM SCT019 BKN046 26/19 A3019 RMK
AO2 SLP216 T02560194 $





000
SAUS41 KLWX 221900
MTRRYT
METAR KRYT 221853Z AUTO 00000KT 10SM BKN029 28/20 A3013 RMK AO2
SLP191 T02780200 $





000
SAUS41 KLWX 221859 COR
MTRDMH
METAR KDMH 221854Z AUTO 29/18 A3014 RMK AO1 SLP205 T02890183





000
SAUS41 KLWX 221855
MTRNAK
METAR KNAK 221854Z AUTO 16007KT 10SM OVC060 28/19 A3014 RMK AO2
SLP208 T02780189





000
SAUS41 KLWX 221840
MTRRYT
SPECI KRYT 221833Z AUTO VRB03KT 10SM BKN027 28/21 A3014 RMK AO2 $





000
SAUS41 KLWX 221808 COR
MTRRSP
METAR KRSP 221754Z AUTO 19006KT 10SM FEW015 SCT027 BKN032 24/19
A3021 RMK AO2 SLP316 T02390194 10244 20194 58009 $





000
SAUS41 KLWX 221807
MTRRYT
SPECI KRYT 221807Z AUTO 00000KT 10SM SCT025 BKN031 BKN039 27/21
A3015 RMK AO2 $





000
SAUS41 KLWX 221800
MTRRYT
METAR KRYT 221753Z AUTO 00000KT 10SM SCT025 BKN035 26/20 A3015 RMK
AO2 SLP198 T02610200 10272 20206 58010 $





000
SAUS41 KLWX 221759 COR
MTRDMH
METAR KDMH 221754Z AUTO 28/20 A3014 RMK AO1 SLP207 T02830200 10300
20244 56015





000
SAUS41 KLWX 221758 COR
MTRNAK
METAR KNAK 221754Z AUTO 18009KT 10SM OVC055 27/17 A3016 RMK AO2
SLP214 T02720167 10278 20239 58008





000
SAUS41 KLWX 221756 COR
MTRNAK
METAR KNAK 221754Z AUTO 18009KT 10SM OVC055 27/17 A3016 RMK AO2
SLP214 T02720167 10278 20239 58008





000
SAUS41 KLWX 221755
MTRNAK
METAR KNAK 221754Z AUTO 18009KT 10SM OVC055 27/17 A3016 RMK AO2
SLP214 T02720167 10278 20239 58008





000
SAUS41 KLWX 221749
MTRRYT
SPECI KRYT 221742Z AUTO 00000KT 10SM BKN023 BKN029 BKN039 26/20
A3015 RMK AO2 $





000
SAUS41 KLWX 221744 COR
MTRRSP
SPECI KRSP 221730Z AUTO VRB06KT 10SM SCT013 BKN019 BKN028 24/20
A3021 RMK AO2 $





000
SAUS41 KLWX 221714
MTRRYT
SPECI KRYT 221707Z AUTO 00000KT 10SM SCT021 BKN034 26/20 A3016 RMK
AO2 $





000
SAUS41 KLWX 221712 COR
MTRRSP
SPECI KRSP 221701Z AUTO VRB05KT 9SM BKN012 OVC020 23/19 A3022 RMK
AO2 $





000
SAUS41 KLWX 221700
MTRRYT
METAR KRYT 221653Z AUTO 00000KT 10SM SCT019 BKN026 OVC035 26/20
A3017 RMK AO2 SLP205 T02560200 $





000
SAUS41 KLWX 221659 COR
MTRDMH
METAR KDMH 221654Z AUTO 28/21 A3016 RMK AO1 SLP212 T02830211





000
SAUS41 KLWX 221655
MTRNAK
METAR KNAK 221654Z AUTO 18008KT 10SM OVC050 27/17 A3017 RMK AO2
SLP216 T02720172





000
SAUS41 KLWX 221648
MTRRYT
SPECI KRYT 221641Z AUTO 00000KT 10SM BKN019 BKN027 OVC035 25/20
A3017 RMK AO2 $





000
SAUS41 KLWX 221646 COR
MTRRSP
SPECI KRSP 221632Z AUTO 19006KT 10SM FEW014 OVC025 23/19 A3022 RMK
AO2 $





000
SAUS41 KLWX 221641
MTRRYT
SPECI KRYT 221634Z AUTO 00000KT 10SM SCT019 SCT026 OVC035 25/20
A3017 RMK AO2 $





000
SAUS41 KLWX 221608
MTRRSP
SPECI KRSP 221602Z AUTO VRB06KT 8SM BKN010 OVC020 22/19 A3023 RMK
AO2 $





000
SAUS41 KLWX 221600
MTRRYT
METAR KRYT 221553Z AUTO VRB03KT 10SM BKN023 OVC030 26/20 A3017 RMK
AO2 SLP206 T02560200 $





000
SAUS41 KLWX 221559 COR
MTRDMH
METAR KDMH 221554Z AUTO 27/21 A3016 RMK AO1 SLP214 T02720206





000
SAUS41 KLWX 221556 COR
MTRRSP
SPECI KRSP 221542Z AUTO 21006KT 8SM BKN008 OVC018 22/19 A3023 RMK
AO2 CIG 007V014 $





000
SAUS41 KLWX 221555
MTRNAK
METAR KNAK 221554Z AUTO 13011KT 10SM SCT049 27/20 A3017 RMK AO2
SLP219 T02670200





000
SAUS41 KLWX 221546
MTRRYT
SPECI KRYT 221539Z AUTO 00000KT 10SM SCT020 BKN025 26/20 A3018 RMK
AO2 $





000
SAUS41 KLWX 221522
MTRRYT
SPECI KRYT 221521Z AUTO 00000KT 10SM SCT015 25/20 A3018 RMK AO2 $





000
SAUS41 KLWX 221508 COR
MTRRSP
METAR KRSP 221454Z AUTO 21006KT 10SM SCT003 OVC012 22/19 A3024 RMK
AO2 SLP233 T02170189 58004 $





000
SAUS41 KLWX 221500
MTRRYT
METAR KRYT 221453Z AUTO VRB03KT 10SM BKN015 OVC021 24/20 A3018 RMK
AO2 SLP210 T02440200 56006 $





000
SAUS41 KLWX 221459 COR
MTRDMH
METAR KDMH 221454Z AUTO 27/20 A3019 RMK AO1 SLP222 T02720200 58005





000
SAUS41 KLWX 221456
MTRNAK
METAR KNAK 221454Z AUTO 12008KT 10SM FEW021 SCT036 SCT049 26/21
A3018 RMK AO2 SLP221 T02560206 58006





000
SAUS41 KLWX 221452
MTRRYT
SPECI KRYT 221451Z AUTO VRB04KT 10SM BKN015 OVC021 24/20 A3018 RMK
AO2 $





000
SAUS41 KLWX 221446
MTRNAK
SPECI KNAK 221445Z AUTO 12008KT 10SM FEW022 SCT028 BKN036 26/21
A3018 RMK AO2 T02610211





000
SAUS41 KLWX 221438 COR
MTRRSP
SPECI KRSP 221424Z AUTO 18005KT 4SM BR OVC001 21/19 A3024 RMK AO2 $





000
SAUS41 KLWX 221429 COR
MTRRSP
SPECI KRSP 221415Z AUTO VRB04KT 2 1/2SM BR OVC001 21/19 A3025 RMK
AO2 $





000
SAUS41 KLWX 221415
MTRNAK
SPECI KNAK 221413Z AUTO 13007KT 10SM SCT018 BKN023 OVC050 26/22
A3019 RMK AO2 T02560217





000
SAUS41 KLWX 221408
MTRRSP
SPECI KRSP 221402Z AUTO VRB03KT 1 3/4SM BR OVC001 21/19 A3024 RMK
AO2 VIS 3/4V3 $





000
SAUS41 KLWX 221400
MTRRYT
METAR KRYT 221353Z AUTO 01003KT 7SM OVC012 22/20 A3020 RMK AO2
SLP216 T02220200 $





000
SAUS41 KLWX 221359 COR
MTRDMH
METAR KDMH 221354Z AUTO 26/21 A3019 RMK AO1 SLP224 T02560206





000
SAUS41 KLWX 221356
MTRNAK
METAR KNAK 221354Z AUTO 14007KT 10SM SCT018 OVC050 25/22 A3019 RMK
AO2 SLP225 T02500217





000
SAUS41 KLWX 221324 COR
MTRRSP
SPECI KRSP 221314Z AUTO 17003KT 1/4SM FG VV001 20/19 A3024 RMK AO2 $





000
SAUS41 KLWX 221316 COR
MTRRSP
SPECI KRSP 221304Z AUTO 00000KT 1 3/4SM BR OVC002 21/19 A3024 RMK
AO2 $





000
SAUS41 KLWX 221307 COR
MTRRSP
METAR KRSP 221254Z AUTO VRB03KT 4SM BR OVC002 21/19 A3025 RMK AO2
SLP236 T02060189 $





000
SAUS41 KLWX 221300
MTRRYT
METAR KRYT 221253Z AUTO 00000KT 7SM OVC014 22/19 A3020 RMK AO2
SLP217 T02170189 $





000
SAUS41 KLWX 221259 COR
MTRRSP
SPECI KRSP 221248Z AUTO 15004KT 3SM BR OVC002 21/19 A3024 RMK AO2 $





000
SAUS41 KLWX 221259 COR
MTRDMH
METAR KDMH 221254Z AUTO 25/21 A3020 RMK AO1 SLP225 T02500206





000
SAUS41 KLWX 221255
MTRNAK
METAR KNAK 221254Z AUTO 16004KT 10SM FEW050 24/21 A3020 RMK AO2
SLP227 T02440211





000
SAUS41 KLWX 221251 COR
MTRRSP
SPECI KRSP 221237Z AUTO 00000KT 1 3/4SM BR OVC002 20/19 A3025 RMK
AO2 $





000
SAUS41 KLWX 221243 COR
MTRRSP
SPECI KRSP 221232Z AUTO 17004KT 3SM BR OVC002 20/19 A3025 RMK AO2 $





000
SAUS41 KLWX 221231 COR
MTRRSP
SPECI KRSP 221220Z AUTO 00000KT 1 1/4SM BR OVC002 20/19 A3025 RMK
AO2 $





000
SAUS41 KLWX 221219 COR
MTRRSP
SPECI KRSP 221208Z AUTO 00000KT 2SM BR OVC002 20/19 A3025 RMK AO2 $





000
SAUS41 KLWX 221208 COR
MTRRSP
METAR KRSP 221154Z AUTO 00000KT 1/2SM FG VV002 19/19 A3025 RMK AO2
SLP237 60001 70003 T01940189 10200 20194 53010 $





000
SAUS41 KLWX 221200
MTRRYT
METAR KRYT 221153Z AUTO 00000KT 7SM OVC010 21/19 A3020 RMK AO2 CIG
008V013 SLP217 70003 T02060189 10206 20183 53010 $





000
SAUS41 KLWX 221159 COR
MTRDMH
METAR KDMH 221154Z AUTO 24/21 A3020 RMK AO1 SLP227 T02440211 10244
20228 53012





000
SAUS41 KLWX 221155
MTRNAK
METAR KNAK 221154Z AUTO 00000KT 10SM FEW050 24/21 A3020 RMK AO2
SLP227 T02390206 10244 20222 51015





000
SAUS41 KLWX 221111
MTRRYT
SPECI KRYT 221104Z AUTO 00000KT 5SM BR OVC010 20/19 A3019 RMK AO2
CIG 008V012 $





000
SAUS41 KLWX 221108 COR
MTRRSP
METAR KRSP 221054Z AUTO 27003KT 1/2SM FG VV002 19/19 A3024 RMK AO2
SLP233 P0001 T01940189 $





000
SAUS41 KLWX 221100
MTRRYT
METAR KRYT 221053Z AUTO 00000KT 6SM BR OVC008 20/18 A3019 RMK AO2
CIG 008V011 SLP211 T02000183 $





000
SAUS41 KLWX 221058 COR
MTRDMH
METAR KDMH 221054Z AUTO 23/21 A3018 RMK AO1 SLP221 T02330206





000
SAUS41 KLWX 221055
MTRNAK
METAR KNAK 221054Z AUTO 00000KT 10SM OVC047 23/21 A3018 RMK AO2
SLP222 T02280206





000
SAUS41 KLWX 221037
MTRRYT
SPECI KRYT 221036Z AUTO 00000KT 4SM BR OVC008 19/18 A3018 RMK AO2 $





000
SAUS41 KLWX 221016
MTRNAK
SPECI KNAK 221013Z AUTO 00000KT 10SM SCT026 OVC044 23/21 A3018 RMK
AO2 T02280206





000
SAUS41 KLWX 221008 COR
MTRRSP
METAR KRSP 220954Z AUTO 23004KT 1/4SM FG VV001 19/19 A3022 RMK AO2
SLP227 T01940189 $





000
SAUS41 KLWX 221000
MTRRYT
METAR KRYT 220953Z AUTO 00000KT 9SM OVC010 20/18 A3018 RMK AO2
SLP207 T02000183 $





000
SAUS41 KLWX 220958 COR
MTRDMH
METAR KDMH 220954Z AUTO 23/21 A3018 RMK AO1 SLP218 T02280206





000
SAUS41 KLWX 220955
MTRNAK
METAR KNAK 220954Z AUTO 00000KT 10SM BKN025 BKN045 22/21 A3017 RMK
AO2 SLP219 T02220206





000
SAUS41 KLWX 220908 COR
MTRRSP
METAR KRSP 220854Z AUTO 23004KT 1/4SM FG VV001 19/19 A3022 RMK AO2
SLP226 T01940189 55001 $





000
SAUS41 KLWX 220900
MTRRYT
METAR KRYT 220853Z AUTO 00000KT 6SM BR OVC012 19/18 A3017 RMK AO2
SLP206 T01940183 55000 $





000
SAUS41 KLWX 220858 COR
MTRDMH
METAR KDMH 220854Z AUTO 23/21 A3017 RMK AO1 SLP214 T02280206 55002





000
SAUS41 KLWX 220855
MTRNAK
METAR KNAK 220854Z AUTO 00000KT 10SM CLR 22/20 A3015 RMK AO2 SLP213
T02220200 55004





000
SAUS41 KLWX 220851 COR
MTRRSP
SPECI KRSP 220837Z AUTO VRB04KT 1/4SM FG VV001 19/19 A3021 RMK AO2 $





000
SAUS41 KLWX 220816
MTRRSP
SPECI KRSP 220810Z AUTO VRB04KT 1 3/4SM BR OVC002 19/19 A3021 RMK
AO2 $





000
SAUS41 KLWX 220808 COR
MTRRSP
METAR KRSP 220754Z AUTO VRB04KT 4SM BR OVC002 20/19 A3021 RMK AO2
SLP222 T02000189 $





000
SAUS41 KLWX 220800
MTRRYT
METAR KRYT 220753Z AUTO 00000KT 8SM OVC012 19/18 A3016 RMK AO2
SLP203 T01940183 $





000
SAUS41 KLWX 220758 COR
MTRDMH
METAR KDMH 220754Z AUTO 23/20 A3016 RMK AO1 SLP213 T02280200





000
SAUS41 KLWX 220755
MTRNAK
METAR KNAK 220754Z AUTO 00000KT 10SM CLR 22/20 A3015 RMK AO2 SLP212
T02220200





000
SAUS41 KLWX 220708 COR
MTRRSP
METAR KRSP 220654Z AUTO 23005KT 3SM BR OVC002 20/19 A3021 RMK AO2
SLP224 T02000189 $





000
SAUS41 KLWX 220700
MTRRYT
METAR KRYT 220653Z AUTO 00000KT 9SM BKN014 19/18 A3016 RMK AO2
SLP203 T01940178 $





000
SAUS41 KLWX 220658 COR
MTRDMH
METAR KDMH 220654Z AUTO 23/20 A3017 RMK AO1 SLP215 T02330200





000
SAUS41 KLWX 220655
MTRNAK
METAR KNAK 220654Z AUTO VRB04KT 10SM CLR 23/20 A3016 RMK AO2 SLP215
T02280200





000
SAUS41 KLWX 220633
MTRRYT
SPECI KRYT 220626Z AUTO 00000KT 10SM BKN014 19/18 A3017 RMK AO2 $





000
SAUS41 KLWX 220624
MTRNAK
SPECI KNAK 220623Z AUTO 19003KT 10SM SCT024 23/20 A3017 RMK AO2
T02280200





000
SAUS41 KLWX 220616 COR
MTRRSP
SPECI KRSP 220603Z AUTO 22006KT 6SM BR OVC004 20/19 A3022 RMK AO2 $





000
SAUS41 KLWX 220610
MTRNAK
SPECI KNAK 220609Z AUTO VRB03KT 10SM BKN024 23/21 A3017 RMK AO2
T02330206





000
SAUS41 KLWX 220608 COR
MTRRSP
METAR KRSP 220554Z AUTO VRB05KT 6SM BR OVC006 20/19 A3022 RMK AO2
SLP227 T02000189 10217 20194 58005 $





000
SAUS41 KLWX 220600
MTRRYT
METAR KRYT 220553Z AUTO 00000KT 9SM CLR 19/18 A3017 RMK AO2 SLP208
T01890178 10239 20183 58005 $





000
SAUS41 KLWX 220558 COR
MTRDMH
METAR KDMH 220554Z AUTO 24/19 A3017 RMK AO1 SLP216 T02390194 10272
20239 58003





000
SAUS41 KLWX 220556
MTRNAK
METAR KNAK 220554Z AUTO 19003KT 10SM SCT022 23/21 A3017 RMK AO2
SLP217 T02330206 10261 20228 58004





000
SAUS41 KLWX 220547 COR
MTRRSP
SPECI KRSP 220533Z AUTO VRB04KT 8SM BKN006 19/18 A3022 RMK AO2 CIG
005V008 $





000
SAUS41 KLWX 220540
MTRNAK
SPECI KNAK 220539Z AUTO 20005KT 10SM SCT024 23/20 A3017 RMK AO2
T02330200





000
SAUS41 KLWX 220533 COR
MTRRSP
SPECI KRSP 220519Z AUTO 20005KT 9SM FEW006 19/18 A3023 RMK AO2 $





000
SAUS41 KLWX 220508 COR
MTRRSP
METAR KRSP 220454Z AUTO 21006KT 10SM CLR 19/18 A3023 RMK AO2 SLP233
T01940178 402440178 $





000
SAUS41 KLWX 220506
MTRNAK
SPECI KNAK 220505Z AUTO 20003KT 10SM BKN020 BKN070 23/20 A3017 RMK
AO2 T02330200





000
SAUS41 KLWX 220500
MTRRYT
METAR KRYT 220453Z AUTO 00000KT 7SM CLR 19/18 A3019 RMK AO2 SLP212
T01890178 402610189 $





000
SAUS41 KLWX 220458 COR
MTRDMH
METAR KDMH 220454Z AUTO 24/19 A3018 RMK AO1 SLP219 T02440194
402780222





000
SAUS41 KLWX 220455
MTRNAK
METAR KNAK 220454Z AUTO 20005KT 10SM SCT020 BKN070 23/20 A3017 RMK
AO2 SLP219 T02330200 402670217





000
SAUS41 KLWX 220408 COR
MTRRSP
METAR KRSP 220354Z AUTO 20006KT 10SM CLR 20/18 A3023 RMK AO2 SLP233
T02000178 $





000
SAUS41 KLWX 220400
MTRRYT
METAR KRYT 220353Z AUTO 00000KT 5SM BR CLR 19/18 A3019 RMK AO2
SLP212 T01890178 $





000
SAUS41 KLWX 220358 COR
MTRDMH
METAR KDMH 220354Z AUTO 25/19 A3018 RMK AO1 SLP219 T02500189





000
SAUS41 KLWX 220355
MTRNAK
METAR KNAK 220354Z AUTO 22003KT 10SM CLR 24/19 A3018 RMK AO2 SLP220
T02390194





000
SAUS41 KLWX 220316
MTRRSP
SPECI KRSP 220310Z AUTO 20006KT 10SM FEW010 SCT017 20/17 A3024 RMK
AO2 $





000
SAUS41 KLWX 220308 COR
MTRRSP
METAR KRSP 220254Z AUTO 21006KT 10SM SCT012 BKN019 20/17 A3024 RMK
AO2 SLP234 T02000172 53004 $





000
SAUS41 KLWX 220300
MTRRYT
METAR KRYT 220253Z AUTO 00000KT 8SM CLR 19/18 A3019 RMK AO2 SLP214
T01940183 53005 $





000
SAUS41 KLWX 220258 COR
MTRRSP
SPECI KRSP 220244Z AUTO 20006KT 10SM SCT014 BKN019 BKN100 20/17
A3024 RMK AO2 $





000
SAUS41 KLWX 220258 COR
MTRDMH
METAR KDMH 220254Z AUTO 26/19 A3018 RMK AO1 SLP219 T02560189 53007





000
SAUS41 KLWX 220255
MTRNAK
METAR KNAK 220254Z AUTO 00000KT 10SM FEW024 24/20 A3018 RMK AO2
SLP221 T02440200 52009





000
SAUS41 KLWX 220208 COR
MTRRSP
METAR KRSP 220154Z AUTO 17005KT 10SM CLR 21/17 A3024 RMK AO2 SLP235
T02060172 $





000
SAUS41 KLWX 220200
MTRRYT
METAR KRYT 220153Z AUTO 00000KT 8SM CLR 21/19 A3019 RMK AO2 SLP212
T02060189 $





000
SAUS41 KLWX 220158 COR
MTRDMH
METAR KDMH 220154Z AUTO 26/19 A3017 RMK AO1 SLP217 T02610189





000
SAUS41 KLWX 220155
MTRNAK
METAR KNAK 220154Z AUTO 18003KT 7SM CLR 24/20 A3017 RMK AO2 SLP219
T02440200





000
SAUS41 KLWX 220108 COR
MTRRSP
METAR KRSP 220054Z AUTO 16005KT 10SM CLR 21/18 A3022 RMK AO2 SLP230
T02060178 $





000
SAUS41 KLWX 220100
MTRRYT
METAR KRYT 220053Z AUTO 00000KT 10SM CLR 22/19 A3017 RMK AO2 SLP207
T02170189 $





000
SAUS41 KLWX 220058 COR
MTRDMH
METAR KDMH 220054Z AUTO 27/19 A3016 RMK AO1 SLP212 T02670189





000
SAUS41 KLWX 220055
MTRNAK
METAR KNAK 220054Z AUTO 19003KT 10SM CLR 25/19 A3015 RMK AO2 SLP213
T02500194





000
SAUS41 KLWX 220008 COR
MTRRSP
METAR KRSP 212354Z AUTO 16005KT 10SM FEW018 22/18 A3023 RMK AO2
SLP230 T02170183 10244 20217 53003 $





000
SAUS41 KLWX 220000
MTRRYT
METAR KRYT 212353Z AUTO 00000KT 10SM CLR 24/20 A3017 RMK AO2 SLP207
T02390200 10261 20239 53002 $





000
SAUS41 KLWX 212357 COR
MTRDMH
METAR KDMH 212354Z AUTO 27/18 A3016 RMK AO1 SLP212 T02720183 10278
20267 55001





000
SAUS41 KLWX 212357 COR
MTRNAK
METAR KNAK 212354Z AUTO 20003KT 10SM CLR 26/19 A3015 RMK AO2 SLP212
T02560189 10267 20250 57003





000
SAUS41 KLWX 212356 COR
MTRNAK
METAR KNAK 212354Z AUTO 20003KT 10SM CLR 26/19 A3015 RMK AO2 SLP212
T02560189 10267 20250 57003





000
SAUS41 KLWX 212308 COR
MTRRSP
METAR KRSP 212254Z AUTO VRB05KT 10SM FEW017 23/19 A3022 RMK AO2
SLP227 T02280189 $





000
SAUS41 KLWX 212300
MTRRYT
METAR KRYT 212253Z AUTO 00000KT 10SM SCT027 25/19 A3017 RMK AO2
SLP203 T02500194 $





000
SAUS41 KLWX 212258 COR
MTRDMH
METAR KDMH 212254Z AUTO 28/18 A3016 RMK AO1 SLP211 T02780178





000
SAUS41 KLWX 212255
MTRNAK
METAR KNAK 212254Z AUTO 14005KT 10SM OVC075 27/19 A3016 RMK AO2
SLP213 T02670194





000
SAUS41 KLWX 212208 COR
MTRRSP
METAR KRSP 212154Z AUTO 18004KT 10SM FEW019 SCT028 BKN045 23/19
A3021 RMK AO2 SLP226 T02330189 $





000
SAUS41 KLWX 212159
MTRRYT
METAR KRYT 212153Z AUTO 00000KT 10SM BKN050 25/19 A3016 RMK AO2
SLP202 T02500194 $





000
SAUS41 KLWX 212158 COR
MTRDMH
METAR KDMH 212154Z AUTO 28/17 A3016 RMK AO1 SLP212 T02780172





000
SAUS41 KLWX 212155
MTRNAK
METAR KNAK 212154Z AUTO 13006KT 10SM BKN080 27/19 A3016 RMK AO2
SLP213 T02670189





000
SAUS41 KLWX 212122
MTRRYT
SPECI KRYT 212121Z AUTO 00000KT 10SM SCT024 OVC050 26/19 A3017 RMK
AO2 $





000
SAUS41 KLWX 212108 COR
MTRRSP
METAR KRSP 212054Z AUTO 15006KT 10SM FEW018 SCT047 24/19 A3022 RMK
AO2 SLP226 T02390189 58004 $





000
SAUS41 KLWX 212100
MTRRYT
METAR KRYT 212053Z AUTO 00000KT 10SM BKN024 BKN055 26/19 A3017 RMK
AO2 SLP203 T02560194 56007 $





000
SAUS41 KLWX 212058 COR
MTRDMH
METAR KDMH 212054Z AUTO 28/16 A3016 RMK AO1 SLP214 T02780156 56007





000
SAUS41 KLWX 212055
MTRNAK
METAR KNAK 212054Z AUTO 11006KT 10SM CLR 27/19 A3016 RMK AO2 SLP214
T02670189 56008





000
SAUS41 KLWX 212037 COR
MTRRSP
SPECI KRSP 212023Z AUTO VRB05KT 10SM SCT017 OVC049 23/19 A3022 RMK
AO2 $





000
SAUS41 KLWX 212028 COR
MTRRSP
SPECI KRSP 212014Z AUTO 17006KT 10SM SCT015 BKN019 OVC049 23/19
A3022 RMK AO2 $





000
SAUS41 KLWX 212008 COR
MTRRSP
METAR KRSP 211954Z AUTO VRB05KT 10SM SCT012 BKN018 23/18 A3022 RMK
AO2 SLP227 T02280183 $





000
SAUS41 KLWX 212000
MTRRYT
METAR KRYT 211953Z AUTO 00000KT 10SM BKN020 BKN055 25/19 A3017 RMK
AO2 SLP204 T02500194 $





000
SAUS41 KLWX 211958 COR
MTRDMH
METAR KDMH 211954Z AUTO 27/16 A3017 RMK AO1 SLP216 T02720156





000
SAUS41 KLWX 211955
MTRNAK
METAR KNAK 211954Z AUTO 12005KT 10SM OVC075 26/19 A3017 RMK AO2
SLP217 T02610189





000
SAUS41 KLWX 211925 COR
MTRRSP
SPECI KRSP 211915Z AUTO 18005KT 10SM SCT014 BKN026 OVC049 22/19
A3023 RMK AO2 $





000
SAUS41 KLWX 211922
MTRRYT
SPECI KRYT 211921Z AUTO 00000KT 10SM FEW020 SCT032 OVC055 24/19
A3017 RMK AO2 $





000
SAUS41 KLWX 211914 COR
MTRRSP
SPECI KRSP 211903Z AUTO 16005KT 10SM BKN014 BKN019 OVC049 22/18
A3023 RMK AO2 $





000
SAUS41 KLWX 211905 COR
MTRRSP
METAR KRSP 211854Z AUTO VRB05KT 10SM FEW011 SCT016 OVC049 23/19
A3023 RMK AO2 SLP232 T02280189 $





000
SAUS41 KLWX 211900
MTRRYT
METAR KRYT 211853Z AUTO 00000KT 10SM BKN020 BKN029 OVC060 24/19
A3018 RMK AO2 SLP209 T02440189 $





000
SAUS41 KLWX 211859 COR
MTRDMH
METAR KDMH 211854Z AUTO 27/16 A3018 RMK AO1 SLP218 T02720156





000
SAUS41 KLWX 211855
MTRNAK
METAR KNAK 211854Z AUTO 13004KT 10SM OVC080 26/19 A3018 RMK AO2
SLP220 T02560189





000
SAUS41 KLWX 211840 COR
MTRRSP
SPECI KRSP 211826Z AUTO VRB04KT 10SM BKN011 BKN016 OVC048 22/18
A3023 RMK AO2 $





000
SAUS41 KLWX 211808 COR
MTRRSP
METAR KRSP 211754Z AUTO VRB03KT 10SM BKN009 BKN016 OVC046 22/18
A3024 RMK AO2 SLP234 60002 T02170183 10222 20178 58003 $





000
SAUS41 KLWX 211800
MTRRYT
METAR KRYT 211753Z AUTO 21005KT 10SM SCT020 BKN029 BKN055 24/19
A3019 RMK AO2 SLP211 60003 T02440189 10250 20200 58006 $





000
SAUS41 KLWX 211759 COR
MTRDMH
METAR KDMH 211754Z AUTO 27/16 A3018 RMK AO1 SLP221 T02670161 10278
20233 58002





000
SAUS41 KLWX 211756
MTRNAK
METAR KNAK 211754Z AUTO 12004KT 10SM OVC075 25/19 A3018 RMK AO2
SLP223 T02500194 10250 20222 58003





000
SAUS41 KLWX 211737
MTRRYT
SPECI KRYT 211736Z AUTO VRB04KT 10SM SCT018 BKN030 24/19 A3019 RMK
AO2 $





000
SAUS41 KLWX 211708 COR
MTRRSP
METAR KRSP 211654Z AUTO VRB03KT 10SM BKN007 BKN011 OVC045 22/19
A3024 RMK AO2 CIG 005V009 SLP235 T02170189 $





000
SAUS41 KLWX 211700
MTRRYT
METAR KRYT 211653Z AUTO VRB03KT 10SM SCT018 BKN023 OVC035 24/19
A3019 RMK AO2 SLP214 T02390189 $





000
SAUS41 KLWX 211659 COR
MTRDMH
METAR KDMH 211654Z AUTO 27/15 A3020 RMK AO1 SLP225 T02670150





000
SAUS41 KLWX 211656
MTRNAK
METAR KNAK 211654Z AUTO 13003KT 10SM OVC060 24/19 A3019 RMK AO2
SLP226 T02390189





000
SAUS41 KLWX 211634 COR
MTRRSP
SPECI KRSP 211620Z AUTO 19005KT 10SM OVC005 21/18 A3025 RMK AO2 CIG
003V010 $





000
SAUS41 KLWX 211608 COR
MTRRSP
METAR KRSP 211554Z AUTO VRB03KT 7SM OVC003 20/18 A3025 RMK AO2
SLP238 T02000183 $





000
SAUS41 KLWX 211600
MTRRYT
METAR KRYT 211553Z AUTO 00000KT 10SM SCT012 OVC018 23/19 A3020 RMK
AO2 SLP217 T02280194 $





000
SAUS41 KLWX 211559 COR
MTRDMH
METAR KDMH 211554Z AUTO 27/16 A3019 RMK AO1 SLP224 T02720161





000
SAUS41 KLWX 211558 COR
MTRRSP
SPECI KRSP 211544Z AUTO VRB03KT 7SM OVC003 19/18 A3025 RMK AO2 $





000
SAUS41 KLWX 211555
MTRNAK
METAR KNAK 211554Z AUTO 12006KT 10SM OVC060 24/19 A3020 RMK AO2
SLP229 T02390189





000
SAUS41 KLWX 211530 COR
MTRRSP
SPECI KRSP 211516Z AUTO 16004KT 10SM OVC005 20/18 A3024 RMK AO2 $





000
SAUS41 KLWX 211508 COR
MTRRSP
METAR KRSP 211454Z AUTO 15004KT 7SM BKN003 OVC007 19/18 A3025 RMK
AO2 SLP238 60002 T01940178 51004 $





000
SAUS41 KLWX 211500
MTRRYT
METAR KRYT 211453Z AUTO 00000KT 10SM OVC014 21/19 A3021 RMK AO2
SLP219 60003 T02110189 53000 $





000
SAUS41 KLWX 211459 COR
MTRDMH
METAR KDMH 211454Z AUTO 26/17 A3019 RMK AO1 SLP223 T02610172 51002





000
SAUS41 KLWX 211455
MTRNAK
METAR KNAK 211454Z AUTO 15006KT 10SM CLR 24/19 A3019 RMK AO2 SLP226
T02390189 51005





000
SAUS41 KLWX 211431 COR
MTRRSP
SPECI KRSP 211418Z AUTO VRB04KT 3SM BR OVC001 18/18 A3025 RMK AO2 $





000
SAUS41 KLWX 211409
MTRRYT
SPECI KRYT 211402Z AUTO 00000KT 10SM FEW008 BKN016 OVC047 21/19
A3020 RMK AO2 $





000
SAUS41 KLWX 211407 COR
MTRRSP
METAR KRSP 211354Z AUTO 17006KT 1 3/4SM BR OVC001 18/18 A3024 RMK
AO2 VIS 1 1/4V2 1/2 SLP237 T01830178 $





000
SAUS41 KLWX 211400
MTRRYT
METAR KRYT 211353Z AUTO 00000KT 10SM FEW010 BKN014 OVC049 21/19
A3020 RMK AO2 SLP218 T02110189 $





000
SAUS41 KLWX 211359 COR
MTRDMH
METAR KDMH 211354Z AUTO 26/17 A3019 RMK AO1 SLP222 T02610172





000
SAUS41 KLWX 211356
MTRNAK
METAR KNAK 211354Z AUTO 12005KT 10SM FEW060 23/19 A3019 RMK AO2
SLP226 T02330189





000
SAUS41 KLWX 211336
MTRRYT
SPECI KRYT 211329Z AUTO 00000KT 9SM FEW006 BKN019 OVC049 21/19 A3021
RMK AO2 $





000
SAUS41 KLWX 211334 COR
MTRRSP
SPECI KRSP 211321Z AUTO 19007KT 1 1/2SM BR OVC001 18/18 A3024 RMK
AO2 $





000
SAUS41 KLWX 211308 COR
MTRRSP
METAR KRSP 211254Z AUTO 19004KT M1/4SM FG VV001 18/18 A3025 RMK AO2
RAE37 SLP238 P0002 T01830178 $





000
SAUS41 KLWX 211300
MTRRYT
SPECI KRYT 211259Z AUTO 00000KT 3SM BR BKN006 BKN030 OVC039 20/19
A3021 RMK AO2 $





000
SAUS41 KLWX 211259 COR
MTRDMH
METAR KDMH 211254Z AUTO 24/18 A3020 RMK AO1 SLP225 T02440183





000
SAUS41 KLWX 211256
MTRNAK
METAR KNAK 211254Z AUTO 06005KT 10SM CLR 23/18 A3019 RMK AO2 SLP224
T02280183





000
SAUS41 KLWX 211246
MTRRYT
SPECI KRYT 211239Z AUTO 00000KT 1 3/4SM BR SCT006 BKN032 OVC040
20/19 A3020 RMK AO2 RAE1156B12E26 P0002 $





000
SAUS41 KLWX 211220
MTRRYT
SPECI KRYT 211220Z AUTO 00000KT 2SM -RA BR SCT008 BKN028 OVC043
20/19 A3020 RMK AO2 RAE1156B12 P0001 $





000
SAUS41 KLWX 211212
MTRRYT
SPECI KRYT 211205Z AUTO 00000KT 4SM BR BKN008 BKN019 OVC037 20/19
A3020 RMK AO2 RAE1156 P0000 $





000
SAUS41 KLWX 211207 COR
MTRRSP
METAR KRSP 211154Z AUTO VRB03KT 1/2SM -RA FG VV001 18/18 A3024 RMK
AO2 RAE05B39 SLP235 P0001 60003 70003 T01780178 10189 20178 53015 $





000
SAUS41 KLWX 211202
MTRRYT
SPECI KRYT 211155Z AUTO 00000KT 3SM -RA BR SCT008 BKN013 OVC036
20/19 A3019 RMK AO2 P0000 $





000
SAUS41 KLWX 211159 COR
MTRDMH
METAR KDMH 211154Z AUTO 23/18 A3019 RMK AO1 SLP221 T02330178 10233
20222 51010





000
SAUS41 KLWX 211156 COR
MTRRSP
SPECI KRSP 211143Z AUTO VRB05KT 1/4SM -RA FG VV001 18/18 A3023 RMK
AO2 RAE05B39 P0001 $





000
SAUS41 KLWX 211155
MTRNAK
METAR KNAK 211154Z AUTO 10006KT 10SM FEW080 22/19 A3018 RMK AO2
SLP221 T02220189 10233 20217 51012





000
SAUS41 KLWX 211148
MTRRYT
SPECI KRYT 211141Z AUTO 00000KT 2 1/2SM -RA BR FEW011 BKN019 OVC036
20/19 A3019 RMK AO2 RAB02 P0004 $





000
SAUS41 KLWX 211130 COR
MTRRSP
SPECI KRSP 211116Z AUTO 18006KT 1 3/4SM BR OVC001 18/18 A3022 RMK
AO2 RAE05 P0000 $





000
SAUS41 KLWX 211125
MTRRYT
SPECI KRYT 211118Z AUTO 00000KT 2SM -RA BR SCT010 OVC016 20/19 A3018
RMK AO2 RAB02 P0002 $





000
SAUS41 KLWX 211109 COR
MTRRSP
SPECI KRSP 211059Z AUTO 16004KT 3SM -RA BR OVC001 18/18 A3022 RMK
AO2 P0000 $





000
SAUS41 KLWX 211104
MTRRYT
SPECI KRYT 211057Z AUTO 00000KT 2 1/2SM BR SCT007 OVC013 20/19 A3018
RMK AO2 $





000
SAUS41 KLWX 211100 COR
MTRDMH
METAR KDMH 211054Z AUTO 23/18 A3018 RMK AO1 SLP219 T02280183





000
SAUS41 KLWX 211056
MTRNAK
METAR KNAK 211054Z AUTO 15005KT 10SM OVC075 22/18 A3017 RMK AO2
SLP219 T02220183





000
SAUS41 KLWX 211008 COR
MTRRSP
METAR KRSP 210954Z AUTO VRB05KT 1/4SM FG VV001 18/18 A3020 RMK AO2
SLP221 T01830183 $





000
SAUS41 KLWX 211000
MTRRYT
METAR KRYT 210953Z AUTO 00000KT 7SM OVC007 21/19 A3016 RMK AO2 CIG
005V010 SLP203 T02060189 $





000
SAUS41 KLWX 210959 COR
MTRDMH
METAR KDMH 210954Z AUTO 23/19 A3016 RMK AO1 SLP214 T02280189





000
SAUS41 KLWX 210955
MTRNAK
METAR KNAK 210954Z AUTO 11006KT 10SM OVC070 23/18 A3016 RMK AO2
SLP215 T02330178





000
SAUS41 KLWX 210907 COR
MTRRSP
METAR KRSP 210854Z AUTO 18004KT 1/4SM FG VV001 18/18 A3019 RMK AO2
SLP217 T01830183 53004 $





000
SAUS41 KLWX 210900
MTRRYT
METAR KRYT 210853Z AUTO 00000KT 6SM BR OVC007 19/18 A3015 RMK AO2
SLP197 T01940183 53001 $





000
SAUS41 KLWX 210859 COR
MTRDMH
METAR KDMH 210854Z AUTO 23/19 A3015 RMK AO1 SLP211 T02280189 53005





000
SAUS41 KLWX 210855
MTRNAK
METAR KNAK 210854Z AUTO 13008KT 10SM OVC070 23/18 A3014 RMK AO2
SLP209 T02280178 53004





000
SAUS41 KLWX 210808 COR
MTRRSP
METAR KRSP 210754Z AUTO 18003KT 3/4SM BR VV001 19/18 A3017 RMK AO2
SLP305 T01890178 $





000
SAUS41 KLWX 210800
MTRRYT
METAR KRYT 210753Z AUTO 00000KT 9SM BKN009 BKN017 OVC045 19/18 A3013
RMK AO2 CIG 007V013 SLP191 T01940183 $





000
SAUS41 KLWX 210759 COR
MTRDMH
METAR KDMH 210754Z AUTO 23/19 A3014 RMK AO1 SLP205 T02280189





000
SAUS41 KLWX 210759 COR
MTRRSP
SPECI KRSP 210745Z AUTO 18004KT 2SM BR OVC003 19/18 A3017 RMK AO2 $





000
SAUS41 KLWX 210755
MTRNAK
METAR KNAK 210754Z AUTO 10007KT 10SM FEW017 OVC070 23/18 A3013 RMK
AO2 SLP204 T02280183





000
SAUS41 KLWX 210739 COR
MTRRSP
SPECI KRSP 210725Z AUTO VRB03KT 3SM BR OVC003 19/18 A3018 RMK AO2 $





000
SAUS41 KLWX 210737
MTRRYT
SPECI KRYT 210730Z AUTO 00000KT 9SM OVC011 19/18 A3013 RMK AO2 $





000
SAUS41 KLWX 210729 COR
MTRRSP
SPECI KRSP 210715Z AUTO 19004KT 2 1/2SM BR OVC003 19/18 A3018 RMK
AO2 VIS 2V3 $





000
SAUS41 KLWX 210708 COR
MTRRSP
METAR KRSP 210654Z AUTO 18004KT 3SM BR OVC003 19/18 A3018 RMK AO2
SLP212 T01890178 $





000
SAUS41 KLWX 210700
MTRRYT
METAR KRYT 210653Z AUTO 00000KT 10SM BKN009 BKN013 OVC110 19/18
A3013 RMK AO2 CIG 008V012 SLP193 T01940178 $





000
SAUS41 KLWX 210659 COR
MTRDMH
METAR KDMH 210654Z AUTO 23/19 A3014 RMK AO1 SLP204 T02280194





000
SAUS41 KLWX 210655
MTRNAK
METAR KNAK 210654Z AUTO 15007KT 10SM OVC070 22/18 A3013 RMK AO2
SLP203 T02220183





000
SAUS41 KLWX 210651
MTRRYT
SPECI KRYT 210644Z AUTO 00000KT 9SM FEW008 BKN011 OVC110 19/18 A3013
RMK AO2 $





000
SAUS41 KLWX 210617 COR
MTRRSP
SPECI KRSP 210607Z AUTO VRB03KT 5SM BR BKN003 OVC050 19/18 A3018 RMK
AO2 $





000
SAUS41 KLWX 210600
MTRRYT
METAR KRYT 210553Z AUTO 00000KT 10SM BKN060 OVC100 19/18 A3014 RMK
AO2 SLP196 T01940178 10233 20189 50003 $





000
SAUS41 KLWX 210600
MTRRSP
METAR KRSP 210554Z AUTO 19003KT 6SM BR SCT003 BKN050 OVC095 19/18
A3018 RMK AO2 SLP214 T01890178 10211 20189 50002 $





000
SAUS41 KLWX 210559 COR
MTRDMH
METAR KDMH 210554Z AUTO 23/19 A3014 RMK AO1 SLP206 T02280194 10250
20228 51003





000
SAUS41 KLWX 210556
MTRNAK
METAR KNAK 210554Z AUTO 15008KT 10SM SCT070 22/19 A3013 RMK AO2
SLP205 T02220189 10250 20222 50001





000
SAUS41 KLWX 210516 COR
MTRRSP
SPECI KRSP 210507Z AUTO 18004KT 8SM SCT022 SCT027 OVC050 19/17 A3019
RMK AO2 $





000
SAUS41 KLWX 210508 COR
MTRRSP
METAR KRSP 210454Z AUTO 19004KT 7SM SCT022 BKN027 OVC050 19/18 A3019
RMK AO2 SLP217 T01890178 402560167 $





000
SAUS41 KLWX 210500
MTRRYT
METAR KRYT 210453Z AUTO 00000KT 10SM FEW015 OVC060 20/18 A3015 RMK
AO2 SLP198 T02000178 402610156 $





000
SAUS41 KLWX 210459 COR
MTRDMH
METAR KDMH 210454Z AUTO 23/19 A3014 RMK AO1 SLP206 T02330194
402780217





000
SAUS41 KLWX 210455
MTRNAK
METAR KNAK 210454Z AUTO 15009KT 10SM FEW055 BKN075 23/19 A3014 RMK
AO2 SLP207 T02280194 402670222





000
SAUS41 KLWX 210439 COR
MTRRSP
SPECI KRSP 210425Z AUTO 18005KT 7SM SCT006 OVC050 19/18 A3019 RMK
AO2 $





000
SAUS41 KLWX 210414 COR
MTRRSP
SPECI KRSP 210404Z AUTO 18005KT 8SM BKN006 OVC050 19/17 A3018 RMK
AO2 $





000
SAUS41 KLWX 210405 COR
MTRRSP
METAR KRSP 210354Z AUTO 17006KT 9SM SCT006 OVC050 19/17 A3018 RMK
AO2 SLP214 T01940172 $





000
SAUS41 KLWX 210400
MTRRYT
METAR KRYT 210353Z AUTO 00000KT 10SM BKN060 19/18 A3013 RMK AO2
SLP194 T01940178 $





000
SAUS41 KLWX 210359 COR
MTRDMH
METAR KDMH 210354Z AUTO 24/19 A3014 RMK AO1 SLP205 T02390194





000
SAUS41 KLWX 210355
MTRNAK
METAR KNAK 210354Z AUTO 14007KT 10SM CLR 23/19 A3013 RMK AO2 SLP204
T02280189





000
SAUS41 KLWX 210317
MTRNAK
SPECI KNAK 210315Z AUTO 14007KT 10SM SCT022 BKN075 23/19 A3013 RMK
AO2 T02330194





000
SAUS41 KLWX 210308 COR
MTRRSP
METAR KRSP 210254Z AUTO 18004KT 10SM OVC050 20/16 A3018 RMK AO2
SLP213 T02000161 52002 $





000
SAUS41 KLWX 210300
MTRRYT
METAR KRYT 210253Z AUTO 00000KT 10SM OVC060 21/18 A3013 RMK AO2
SLP194 T02060178 53003 $





000
SAUS41 KLWX 210259 COR
MTRDMH
METAR KDMH 210254Z AUTO 24/19 A3013 RMK AO1 SLP203 T02390194 53007





000
SAUS41 KLWX 210256
MTRNAK
METAR KNAK 210254Z AUTO 14009KT 10SM BKN023 BKN075 24/19 A3013 RMK
AO2 SLP204 T02390194 53010





000
SAUS41 KLWX 210208 COR
MTRRSP
METAR KRSP 210154Z AUTO 17005KT 10SM OVC050 21/17 A3018 RMK AO2
SLP214 T02060167 $





000
SAUS41 KLWX 210200
MTRRYT
METAR KRYT 210153Z AUTO 00000KT 10SM OVC060 22/18 A3013 RMK AO2
SLP192 T02170178 $





000
SAUS41 KLWX 210159 COR
MTRDMH
METAR KDMH 210154Z AUTO 24/19 A3013 RMK AO1 SLP201 T02440189





000
SAUS41 KLWX 210155
MTRNAK
METAR KNAK 210154Z AUTO 13008KT 10SM BKN070 24/20 A3011 RMK AO2
SLP199 T02440200





000
SAUS41 KLWX 210135
MTRNAK
SPECI KNAK 210134Z AUTO 11006KT 10SM SCT026 BKN070 24/20 A3011 RMK
AO2 T02440200





000
SAUS41 KLWX 210108 COR
MTRRSP
METAR KRSP 210054Z AUTO 00000KT 10SM OVC050 21/17 A3017 RMK AO2
SLP212 T02060172 $





000
SAUS41 KLWX 210100
MTRRYT
METAR KRYT 210053Z AUTO 00000KT 10SM OVC060 22/18 A3012 RMK AO2
SLP189 T02220183 $





000
SAUS41 KLWX 210059 COR
MTRDMH
METAR KDMH 210054Z AUTO 24/19 A3011 RMK AO1 SLP196 T02440194





000
SAUS41 KLWX 210055
MTRNAK
METAR KNAK 210054Z AUTO 13007KT 10SM BKN026 OVC070 24/20 A3010 RMK
AO2 SLP194 T02440200





000
SAUS41 KLWX 210007 COR
MTRRSP
METAR KRSP 202354Z AUTO 16004KT 10SM OVC050 21/17 A3017 RMK AO2
SLP213 T02060172 10256 20206 53007 $





000
SAUS41 KLWX 210000
MTRRYT
METAR KRYT 202353Z AUTO 00000KT 10SM OVC060 23/18 A3012 RMK AO2
SLP190 T02330178 10261 20233 53007 $





000
SAUS41 KLWX 202359 COR
MTRDMH
METAR KDMH 202354Z AUTO 25/19 A3011 RMK AO1 SLP196 T02500194 10278
20250 53007





000
SAUS41 KLWX 202355
MTRNAK
METAR KNAK 202354Z AUTO 12006KT 10SM BKN075 24/19 A3010 RMK AO2
SLP194 T02440194 10267 20244 53006





000
SAUS41 KLWX 202308 COR
MTRRSP
METAR KRSP 202254Z AUTO VRB03KT 10SM OVC050 21/17 A3016 RMK AO2
SLP208 T02110172 $





000
SAUS41 KLWX 202300
MTRRYT
METAR KRYT 202253Z AUTO 00000KT 10SM OVC060 24/17 A3011 RMK AO2
SLP186 T02390172 $





000
SAUS41 KLWX 202259 COR
MTRDMH
METAR KDMH 202254Z AUTO 25/20 A3010 RMK AO1 SLP193 T02500200





000
SAUS41 KLWX 202255
MTRNAK
METAR KNAK 202254Z AUTO 14006KT 10SM FEW023 OVC065 24/20 A3010 RMK
AO2 SLP193 T02440200





000
SAUS41 KLWX 202208 COR
MTRRSP
METAR KRSP 202154Z AUTO VRB04KT 10SM SCT016 OVC050 22/17 A3014 RMK
AO2 SLP203 T02220172 $





000
SAUS41 KLWX 202200
MTRRYT
METAR KRYT 202153Z AUTO 00000KT 10SM OVC060 24/18 A3010 RMK AO2
SLP182 T02390178 $





000
SAUS41 KLWX 202159 COR
MTRDMH
METAR KDMH 202154Z AUTO 26/19 A3009 RMK AO1 SLP188 T02560194





000
SAUS41 KLWX 202155
MTRNAK
METAR KNAK 202154Z AUTO 13009KT 10SM FEW021 BKN045 OVC065 24/21
A3008 RMK AO2 SLP188 T02440206





000
SAUS41 KLWX 202107 COR
MTRRSP
METAR KRSP 202054Z AUTO 13005KT 10SM SCT035 OVC050 23/16 A3015 RMK
AO2 SLP204 T02280161 55002 $





000
SAUS41 KLWX 202100
MTRRYT
METAR KRYT 202053Z AUTO 00000KT 10SM OVC060 25/16 A3010 RMK AO2
SLP183 T02500161 55004 $





000
SAUS41 KLWX 202059 COR
MTRDMH
METAR KDMH 202054Z AUTO 27/16 A3009 RMK AO1 SLP189 T02670161 55004





000
SAUS41 KLWX 202055
MTRNAK
METAR KNAK 202054Z AUTO 09007KT 10SM SCT032 BKN046 OVC060 25/20
A3008 RMK AO2 SLP188 T02500200 55005





000
SAUS41 KLWX 202008 COR
MTRRSP
METAR KRSP 201954Z AUTO 19004KT 10SM BKN038 BKN046 25/14 A3015 RMK
AO2 SLP202 T02500139 $





000
SAUS41 KLWX 202000
MTRRYT
METAR KRYT 201953Z AUTO 03003KT 10SM FEW044 SCT060 26/16 A3010 RMK
AO2 SLP181 T02610156 $





000
SAUS41 KLWX 201959 COR
MTRDMH
METAR KDMH 201954Z AUTO 27/15 A3009 RMK AO1 SLP188 T02720150





000
SAUS41 KLWX 201955
MTRNAK
METAR KNAK 201954Z AUTO 07007KT 10SM BKN070 26/19 A3008 RMK AO2
SLP187 T02610189





000
SAUS41 KLWX 201908 COR
MTRRSP
METAR KRSP 201854Z AUTO VRB04KT 10SM SCT036 24/14 A3015 RMK AO2
SLP205 T02440139 $





000
SAUS41 KLWX 201900
MTRRYT
METAR KRYT 201853Z AUTO 04006KT 10SM OVC050 25/16 A3011 RMK AO2
SLP186 T02500161 $





000
SAUS41 KLWX 201859 COR
MTRDMH
METAR KDMH 201854Z AUTO 27/17 A3010 RMK AO1 SLP191 T02670167





000
SAUS41 KLWX 201855
MTRNAK
METAR KNAK 201854Z AUTO 04005KT 10SM OVC070 26/19 A3008 RMK AO2
SLP189 T02610189





000
SAUS41 KLWX 201807 COR
MTRRSP
METAR KRSP 201754Z AUTO VRB03KT 10SM CLR 24/13 A3016 RMK AO2 SLP205
T02390128 10244 20172 58008 $





000
SAUS41 KLWX 201800
MTRRYT
METAR KRYT 201753Z AUTO 00000KT 10SM SCT038 BKN049 24/15 A3011 RMK
AO2 SLP187 T02440150 10256 20183 58011 $





000
SAUS41 KLWX 201759 COR
MTRDMH
METAR KDMH 201754Z AUTO 26/17 A3010 RMK AO1 SLP193 T02610172 10278
20217 58009





000
SAUS41 KLWX 201755
MTRNAK
METAR KNAK 201754Z AUTO 06006KT 10SM OVC085 26/18 A3010 RMK AO2
SLP193 T02560183 10261 20228 58006





000
SAUS41 KLWX 201708 COR
MTRRSP
METAR KRSP 201654Z AUTO 16004KT 10SM FEW032 24/13 A3017 RMK AO2
SLP211 T02390128 $





000
SAUS41 KLWX 201700
MTRRYT
METAR KRYT 201653Z AUTO VRB03KT 10SM BKN034 24/16 A3013 RMK AO2
SLP193 T02390156 $





000
SAUS41 KLWX 201659 COR
MTRDMH
METAR KDMH 201654Z AUTO 26/18 A3011 RMK AO1 SLP197 T02610178





000
SAUS41 KLWX 201656
MTRNAK
METAR KNAK 201654Z AUTO 03005KT 10SM FEW027 SCT090 26/19 A3011 RMK
AO2 SLP197 T02560189





000
SAUS41 KLWX 201620
MTRNAK
SPECI KNAK 201619Z AUTO 07005KT 10SM FEW023 SCT029 25/19 A3011 RMK
AO2 T02500189





000
SAUS41 KLWX 201607 COR
MTRRSP
METAR KRSP 201554Z AUTO 20004KT 10SM FEW020 BKN050 22/15 A3018 RMK
AO2 SLP215 T02170150 $





000
SAUS41 KLWX 201600
MTRRYT
METAR KRYT 201553Z AUTO VRB04KT 10SM SCT025 24/17 A3014 RMK AO2
SLP195 T02390172 $





000
SAUS41 KLWX 201559 COR
MTRDMH
METAR KDMH 201554Z AUTO 26/18 A3012 RMK AO1 SLP200 T02560183





000
SAUS41 KLWX 201556
MTRNAK
METAR KNAK 201554Z AUTO 06006KT 10SM OVC023 24/19 A3012 RMK AO2
SLP200 T02440194





000
SAUS41 KLWX 201542 COR
MTRRSP
SPECI KRSP 201529Z AUTO 00000KT 10SM SCT017 BKN055 22/15 A3018 RMK
AO2 $





000
SAUS41 KLWX 201531 COR
MTRRSP
SPECI KRSP 201518Z AUTO VRB04KT 10SM BKN017 22/16 A3018 RMK AO2 $





000
SAUS41 KLWX 201508 COR
MTRRSP
METAR KRSP 201454Z AUTO 00000KT 10SM FEW015 SCT050 20/15 A3018 RMK
AO2 SLP216 T02000150 58000 $





000
SAUS41 KLWX 201504
MTRNAK
SPECI KNAK 201503Z AUTO 36007KT 10SM BKN021 OVC090 24/19 A3012 RMK
AO2 T02390194





000
SAUS41 KLWX 201500
MTRRYT
METAR KRYT 201453Z AUTO 04003KT 10SM OVC060 22/17 A3015 RMK AO2
SLP200 T02220167 58000 $





000
SAUS41 KLWX 201459 COR
MTRDMH
METAR KDMH 201454Z AUTO 24/18 A3013 RMK AO1 SLP202 T02440178 50001





000
SAUS41 KLWX 201455
MTRNAK
METAR KNAK 201454Z AUTO 03007KT 10SM SCT021 OVC090 24/19 A3012 RMK
AO2 SLP200 T02390189 50001





000
SAUS41 KLWX 201441
MTRNAK
SPECI KNAK 201440Z AUTO 02005KT 10SM FEW021 SCT029 OVC095 24/19
A3012 RMK AO2 T02390189





000
SAUS41 KLWX 201407 COR
MTRRSP
METAR KRSP 201354Z AUTO 06003KT 10SM OVC050 19/16 A3019 RMK AO2
SLP219 T01890156 $





000
SAUS41 KLWX 201400
MTRRYT
METAR KRYT 201353Z AUTO 00000KT 10SM OVC060 21/16 A3015 RMK AO2
SLP202 T02060161 $





000
SAUS41 KLWX 201358 COR
MTRDMH
METAR KDMH 201354Z AUTO 23/17 A3013 RMK AO1 SLP203 T02330172





000
SAUS41 KLWX 201355
MTRNAK
METAR KNAK 201354Z AUTO 02007KT 10SM BKN020 OVC030 23/19 A3012 RMK
AO2 SLP201 T02330189





000
SAUS41 KLWX 201307 COR
MTRRSP
METAR KRSP 201254Z AUTO 12004KT 10SM OVC050 18/15 A3019 RMK AO2
SLP221 T01830150 $





000
SAUS41 KLWX 201300
MTRRYT
METAR KRYT 201253Z AUTO 03004KT 10SM FEW015 OVC060 20/16 A3016 RMK
AO2 SLP204 T02000156 $





000
SAUS41 KLWX 201259 COR
MTRDMH
METAR KDMH 201254Z AUTO 22/17 A3014 RMK AO1 SLP205 T02220172





000
SAUS41 KLWX 201255
MTRNAK
METAR KNAK 201254Z AUTO 06007KT 10SM BKN019 OVC085 23/18 A3012 RMK
AO2 SLP200 T02280183





000
SAUS41 KLWX 201233
MTRNAK
SPECI KNAK 201232Z AUTO 05005KT 10SM BKN019 BKN030 OVC080 22/18
A3012 RMK AO2 T02220183





000
SAUS41 KLWX 201222 COR
MTRRSP
SPECI KRSP 201209Z AUTO 13003KT 10SM SCT006 OVC050 18/15 A3018 RMK
AO2 $





000
SAUS41 KLWX 201202
MTRNAK
SPECI KNAK 201201Z AUTO 07007KT 10SM SCT021 SCT033 OVC085 22/18
A3011 RMK AO2 T02220183





000
SAUS41 KLWX 201200
MTRRYT
METAR KRYT 201153Z AUTO 00000KT 10SM BKN060 OVC100 18/16 A3015 RMK
AO2 SLP200 T01830161 10183 20156 51008 $





000
SAUS41 KLWX 201200
MTRRSP
METAR KRSP 201154Z AUTO 12004KT 9SM BKN006 OVC050 17/15 A3018 RMK
AO2 CIG 004V009 SLP218 T01720150 10178 20167 52008 $





000
SAUS41 KLWX 201159 COR
MTRDMH
METAR KDMH 201154Z AUTO 22/17 A3013 RMK AO1 SLP202 T02170167 10228
20217 53010





000
SAUS41 KLWX 201155
MTRNAK
METAR KNAK 201154Z AUTO 06006KT 10SM BKN021 BKN031 OVC085 22/18
A3011 RMK AO2 SLP198 T02220183 10228 20222 52013





000
SAUS41 KLWX 201107
MTRRYT
SPECI KRYT 201107Z AUTO 00000KT 10SM SCT017 OVC060 17/15 A3014 RMK
AO2 $





000
SAUS41 KLWX 201103 COR
MTRRSP
METAR KRSP 201054Z AUTO 12004KT 8SM SCT006 OVC080 17/16 A3017 RMK
AO2 SLP214 T01720156 $





000
SAUS41 KLWX 201100
MTRRYT
METAR KRYT 201053Z AUTO 00000KT 10SM BKN017 OVC095 17/15 A3014 RMK
AO2 SLP197 T01670150 $





000
SAUS41 KLWX 201059 COR
MTRDMH
METAR KDMH 201054Z AUTO 22/17 A3011 RMK AO1 SLP196 T02170167





000
SAUS41 KLWX 201055
MTRNAK
METAR KNAK 201054Z AUTO 02004KT 10SM BKN021 OVC090 22/18 A3009 RMK
AO2 SLP192 T02220183





000
SAUS41 KLWX 201044
MTRNAK
SPECI KNAK 201043Z AUTO 05004KT 10SM BKN021 OVC090 22/18 A3009 RMK
AO2 T02220183





000
SAUS41 KLWX 201040
MTRRSP
SPECI KRSP 201034Z AUTO 00000KT 8SM OVC004 17/16 A3016 RMK AO2 CIG
004V010 $





000
SAUS41 KLWX 201004 COR
MTRRSP
METAR KRSP 200954Z AUTO 13003KT 7SM BKN003 BKN008 OVC075 17/16 A3016
RMK AO2 SLP207 T01720156 $





000
SAUS41 KLWX 201000
MTRRYT
METAR KRYT 200953Z AUTO 00000KT 10SM SCT015 OVC100 17/15 A3012 RMK
AO2 SLP192 T01670150 $





000
SAUS41 KLWX 200959 COR
MTRDMH
METAR KDMH 200954Z AUTO 22/17 A3011 RMK AO1 SLP196 T02170167





000
SAUS41 KLWX 200955
MTRNAK
METAR KNAK 200954Z AUTO 04005KT 10SM FEW035 BKN100 22/19 A3009 RMK
AO2 SLP191 T02220189





000
SAUS41 KLWX 200952
MTRRYT
SPECI KRYT 200951Z AUTO 00000KT 10SM FEW015 OVC100 17/15 A3012 RMK
AO2 $





000
SAUS41 KLWX 200945
MTRRYT
SPECI KRYT 200938Z AUTO 00000KT 10SM BKN015 OVC090 16/14 A3012 RMK
AO2 $





000
SAUS41 KLWX 200927 COR
MTRRSP
SPECI KRSP 200916Z AUTO 14004KT 7SM BKN005 OVC080 17/16 A3015 RMK
AO2 $





000
SAUS41 KLWX 200916 COR
MTRRSP
SPECI KRSP 200906Z AUTO 14004KT 6SM BR SCT005 OVC080 17/15 A3015 RMK
AO2 $





000
SAUS41 KLWX 200908 COR
MTRRSP
METAR KRSP 200854Z AUTO 12003KT 7SM BKN080 BKN110 17/15 A3015 RMK
AO2 SLP205 T01670150 55006 $





000
SAUS41 KLWX 200900
MTRRYT
METAR KRYT 200853Z AUTO 00000KT 10SM FEW018 OVC080 16/14 A3012 RMK
AO2 SLP190 T01560144 55006 $





000
SAUS41 KLWX 200859 COR
MTRDMH
METAR KDMH 200854Z AUTO 22/18 A3010 RMK AO1 SLP192 T02220178 55007





000
SAUS41 KLWX 200856
MTRNAK
METAR KNAK 200854Z AUTO 04005KT 10SM SCT018 BKN030 BKN038 22/19
A3007 RMK AO2 SLP185 T02220194 55009





000
SAUS41 KLWX 200807 COR
MTRRSP
METAR KRSP 200754Z AUTO 14004KT 10SM BKN050 17/14 A3014 RMK AO2
SLP203 T01670144 $





000
SAUS41 KLWX 200800
MTRRYT
METAR KRYT 200753Z AUTO 00000KT 10SM FEW022 SCT065 16/14 A3011 RMK
AO2 SLP187 T01560144 $





000
SAUS41 KLWX 200759 COR
MTRDMH
METAR KDMH 200754Z AUTO 22/18 A3009 RMK AO1 SLP187 T02220178





000
SAUS41 KLWX 200755
MTRNAK
METAR KNAK 200754Z AUTO 03003KT 10SM BKN017 OVC034 22/19 A3007 RMK
AO2 SLP183 T02220194





000
SAUS41 KLWX 200708 COR
MTRRSP
METAR KRSP 200654Z AUTO 15003KT 10SM SCT060 OVC100 17/14 A3015 RMK
AO2 SLP203 T01720139 $





000
SAUS41 KLWX 200700
MTRRYT
METAR KRYT 200653Z AUTO 00000KT 10SM FEW065 OVC110 16/14 A3012 RMK
AO2 SLP190 T01610144 $





000
SAUS41 KLWX 200659 COR
MTRDMH
METAR KDMH 200654Z AUTO 23/18 A3010 RMK AO1 SLP191 T02280183





000
SAUS41 KLWX 200656
MTRNAK
METAR KNAK 200654Z AUTO 04003KT 10SM SCT120 23/19 A3007 RMK AO2
SLP186 T02280194





    US Dept of Commerce
    National Oceanic and Atmospheric Administration
    National Weather Service
    1325 East West Highway
    Silver Spring, MD 20910
    Page Author: NWS Internet Services Team
Disclaimer
Information Quality
Credits
Glossary
Privacy Policy
Freedom of Information Act (FOIA)
About Us
Career Opportunities